createdAt,value
2018-11-28T00:00:43.268Z,63.76
2018-11-28T00:03:18.303Z,63.12
2018-11-28T00:05:53.026Z,62.69
2018-11-28T00:08:27.899Z,62.99
2018-11-28T00:11:02.819Z,62.75
2018-11-28T00:13:37.821Z,62.50
2018-11-28T00:16:12.548Z,63.04
2018-11-28T00:18:47.477Z,63.45
2018-11-28T00:21:22.307Z,62.80
2018-11-28T00:23:57.237Z,62.47
2018-11-28T00:26:32.168Z,62.87
2018-11-28T00:29:07.062Z,62.36
2018-11-28T00:31:42.078Z,62.26
2018-11-28T00:34:17.094Z,62.93
2018-11-28T00:36:52.199Z,63.00
2018-11-28T00:39:27.028Z,63.17
2018-11-28T00:42:01.754Z,63.95
2018-11-28T00:44:36.564Z,66.71
2018-11-28T00:47:11.514Z,66.82
2018-11-28T00:49:46.548Z,68.40
2018-11-28T00:52:21.378Z,68.58
2018-11-28T00:54:56.157Z,66.85
2018-11-28T00:57:31.138Z,66.42
2018-11-28T01:00:09.036Z,65.64
2018-11-28T01:02:44.072Z,66.29
2018-11-28T01:05:19.105Z,65.39
2018-11-28T01:07:55.957Z,65.19
2018-11-28T01:10:30.707Z,64.99
2018-11-28T01:13:05.805Z,65.31
2018-11-28T01:15:40.878Z,65.51
2018-11-28T01:18:15.687Z,65.79
2018-11-28T01:20:50.739Z,65.32
2018-11-28T01:23:25.671Z,67.08
2018-11-28T01:26:00.512Z,67.57
2018-11-28T01:28:35.430Z,68.98
2018-11-28T01:31:10.366Z,67.20
2018-11-28T01:33:45.811Z,68.54
2018-11-28T01:36:21.929Z,68.88
2018-11-28T01:38:56.794Z,68.85
2018-11-28T01:41:31.623Z,67.74
2018-11-28T01:44:07.069Z,66.95
2018-11-28T01:46:42.003Z,67.13
2018-11-28T01:49:16.971Z,67.78
2018-11-28T01:51:52.210Z,69.08
2018-11-28T01:54:26.938Z,70.91
2018-11-28T01:57:01.874Z,71.92
2018-11-28T01:59:36.797Z,72.15
2018-11-28T02:02:11.630Z,72.08
2018-11-28T02:04:46.557Z,71.02
2018-11-28T02:07:21.491Z,69.10
2018-11-28T02:09:56.521Z,69.67
2018-11-28T02:12:31.351Z,71.36
2018-11-28T02:15:08.126Z,70.81
2018-11-28T02:17:42.963Z,69.86
2018-11-28T02:20:18.469Z,67.48
2018-11-28T02:22:53.429Z,68.02
2018-11-28T02:25:28.361Z,67.47
2018-11-28T02:28:03.497Z,67.92
2018-11-28T02:30:38.537Z,69.65
2018-11-28T02:33:13.462Z,70.11
2018-11-28T02:35:48.393Z,69.13
2018-11-28T02:38:23.325Z,68.99
2018-11-28T02:40:58.154Z,70.54
2018-11-28T02:43:33.087Z,70.60
2018-11-28T02:46:19.383Z,69.53
2018-11-28T02:48:54.329Z,70.79
2018-11-28T02:51:29.245Z,70.29
2018-11-28T02:54:04.176Z,70.89
2018-11-28T02:56:39.209Z,70.19
2018-11-28T02:59:14.038Z,69.41
2018-11-28T03:01:48.878Z,68.00
2018-11-28T03:04:23.905Z,67.28
2018-11-28T03:06:58.831Z,67.49
2018-11-28T03:09:33.870Z,67.18
2018-11-28T03:12:09.000Z,68.44
2018-11-28T03:14:44.241Z,69.83
2018-11-28T03:17:24.700Z,69.97
2018-11-28T03:19:59.735Z,69.60
2018-11-28T03:22:34.564Z,69.16
2018-11-28T03:25:10.991Z,68.26
2018-11-28T03:27:46.096Z,68.84
2018-11-28T03:30:21.129Z,69.33
2018-11-28T03:32:56.667Z,68.23
2018-11-28T03:35:31.686Z,68.44
2018-11-28T03:38:06.783Z,68.78
2018-11-28T03:40:41.655Z,69.27
2018-11-28T03:43:16.578Z,69.47
2018-11-28T03:45:51.917Z,67.97
2018-11-28T03:48:26.952Z,66.67
2018-11-28T03:51:01.780Z,67.02
2018-11-28T03:53:36.816Z,67.29
2018-11-28T03:56:11.946Z,66.01
2018-11-28T03:58:47.082Z,66.18
2018-11-28T04:01:22.016Z,68.15
2018-11-28T04:03:56.840Z,67.72
2018-11-28T04:06:31.876Z,67.27
2018-11-28T04:09:08.722Z,67.04
2018-11-28T04:11:43.581Z,67.51
2018-11-28T04:14:18.613Z,67.79
2018-11-28T04:16:53.647Z,65.66
2018-11-28T04:19:28.378Z,65.40
2018-11-28T04:22:03.203Z,66.03
2018-11-28T04:24:38.241Z,65.55
2018-11-28T04:27:13.089Z,65.42
2018-11-28T04:29:47.998Z,64.47
2018-11-28T04:32:22.824Z,64.49
2018-11-28T04:34:57.967Z,64.95
2018-11-28T04:37:32.837Z,65.00
2018-11-28T04:40:09.977Z,64.91
2018-11-28T04:42:45.425Z,65.09
2018-11-28T04:45:25.047Z,64.33
2018-11-28T04:47:59.799Z,64.78
2018-11-28T04:50:34.822Z,65.08
2018-11-28T04:53:09.854Z,64.20
2018-11-28T04:55:44.987Z,66.07
2018-11-28T04:58:20.021Z,67.72
2018-11-28T05:00:55.163Z,67.83
2018-11-28T05:03:30.298Z,67.94
2018-11-28T05:06:05.375Z,68.91
2018-11-28T05:08:40.468Z,70.04
2018-11-28T05:11:15.317Z,69.29
2018-11-28T05:13:50.329Z,67.74
2018-11-28T05:16:25.461Z,67.47
2018-11-28T05:19:00.391Z,66.21
2018-11-28T05:21:35.220Z,66.72
2018-11-28T05:24:10.058Z,65.92
2018-11-28T05:26:45.184Z,65.70
2018-11-28T05:29:20.014Z,65.69
2018-11-28T05:31:54.842Z,65.42
2018-11-28T05:34:29.776Z,64.70
2018-11-28T05:37:04.989Z,64.60
2018-11-28T05:39:39.744Z,63.91
2018-11-28T05:42:14.567Z,64.24
2018-11-28T05:44:49.498Z,64.80
2018-11-28T05:47:24.332Z,64.61
2018-11-28T05:49:59.258Z,64.47
2018-11-28T05:52:34.117Z,64.77
2018-11-28T05:55:10.660Z,64.78
2018-11-28T05:57:45.690Z,65.66
2018-11-28T06:00:30.660Z,66.35
2018-11-28T06:03:13.165Z,65.63
2018-11-28T06:05:47.993Z,66.14
2018-11-28T06:08:22.721Z,65.10
2018-11-28T06:10:57.552Z,64.60
2018-11-28T06:13:32.529Z,64.54
2018-11-28T06:16:07.369Z,64.87
2018-11-28T06:18:42.355Z,65.19
2018-11-28T06:21:17.172Z,65.68
2018-11-28T06:23:52.204Z,65.17
2018-11-28T06:26:27.240Z,66.10
2018-11-28T06:29:02.277Z,66.73
2018-11-28T06:31:37.106Z,68.11
2018-11-28T06:34:12.134Z,68.79
2018-11-28T06:36:46.933Z,67.89
2018-11-28T06:39:21.997Z,68.78
2018-11-28T06:41:56.934Z,69.86
2018-11-28T06:44:31.762Z,70.36
2018-11-28T06:47:06.809Z,69.81
2018-11-28T06:49:41.824Z,70.62
2018-11-28T06:52:16.859Z,70.02
2018-11-28T06:54:51.794Z,68.83
2018-11-28T06:57:26.840Z,69.52
2018-11-28T07:00:01.758Z,69.91
2018-11-28T07:02:36.685Z,68.97
2018-11-28T07:05:12.319Z,69.23
2018-11-28T07:07:47.368Z,68.94
2018-11-28T07:10:23.045Z,68.84
2018-11-28T07:12:58.149Z,66.99
2018-11-28T07:15:33.083Z,67.16
2018-11-28T07:18:19.277Z,66.06
2018-11-28T07:20:54.414Z,65.96
2018-11-28T07:23:29.389Z,65.85
2018-11-28T07:26:04.479Z,65.57
2018-11-28T07:28:39.308Z,64.70
2018-11-28T07:31:14.137Z,66.19
2018-11-28T07:33:49.071Z,65.88
2018-11-28T07:36:24.101Z,65.66
2018-11-28T07:38:59.136Z,64.87
2018-11-28T07:41:34.168Z,64.86
2018-11-28T07:44:09.100Z,66.01
2018-11-28T07:46:44.037Z,66.18
2018-11-28T07:49:18.966Z,67.55
2018-11-28T07:51:54.098Z,68.37
2018-11-28T07:54:29.034Z,68.25
2018-11-28T07:57:04.908Z,68.09
2018-11-28T07:59:39.940Z,68.12
2018-11-28T08:02:14.927Z,68.33
2018-11-28T08:04:49.904Z,69.03
2018-11-28T08:07:24.840Z,69.63
2018-11-28T08:09:59.869Z,71.27
2018-11-28T08:12:34.697Z,70.81
2018-11-28T08:15:09.632Z,69.58
2018-11-28T08:17:44.664Z,68.07
2018-11-28T08:20:19.798Z,67.07
2018-11-28T08:22:54.891Z,67.18
2018-11-28T08:25:29.764Z,67.93
2018-11-28T08:28:04.522Z,65.82
2018-11-28T08:30:39.627Z,65.66
2018-11-28T08:33:14.661Z,66.04
2018-11-28T08:35:49.489Z,64.71
2018-11-28T08:38:25.347Z,65.82
2018-11-28T08:41:00.377Z,66.58
2018-11-28T08:43:35.253Z,65.18
2018-11-28T08:46:10.269Z,65.61
2018-11-28T08:48:45.173Z,65.02
2018-11-28T08:51:20.032Z,65.33
2018-11-28T08:53:55.133Z,63.69
2018-11-28T08:56:29.961Z,65.00
2018-11-28T08:59:04.945Z,63.95
2018-11-28T09:01:39.928Z,63.10
2018-11-28T09:04:14.846Z,62.60
2018-11-28T09:06:49.791Z,63.82
2018-11-28T09:09:24.960Z,63.87
2018-11-28T09:11:59.961Z,63.09
2018-11-28T09:14:34.997Z,63.24
2018-11-28T09:17:15.034Z,62.22
2018-11-28T09:19:45.164Z,63.27
2018-11-28T09:22:19.993Z,63.26
2018-11-28T09:24:54.818Z,62.43
2018-11-28T09:27:29.649Z,63.44
2018-11-28T09:30:05.201Z,62.94
2018-11-28T09:32:40.128Z,63.39
2018-11-28T09:35:15.635Z,63.66
2018-11-28T09:37:50.601Z,64.27
2018-11-28T09:40:26.501Z,64.86
2018-11-28T09:43:01.283Z,64.79
2018-11-28T09:45:36.068Z,65.40
2018-11-28T09:48:10.941Z,66.89
2018-11-28T09:50:45.880Z,66.06
2018-11-28T09:53:20.803Z,67.47
2018-11-28T09:55:55.836Z,69.35
2018-11-28T09:58:30.769Z,67.42
2018-11-28T10:01:06.007Z,67.45
2018-11-28T10:03:41.041Z,67.34
2018-11-28T10:06:16.076Z,67.04
2018-11-28T10:08:50.902Z,65.29
2018-11-28T10:11:25.936Z,65.15
2018-11-28T10:14:00.873Z,64.78
2018-11-28T10:16:35.932Z,64.57
2018-11-28T10:19:10.833Z,63.60
2018-11-28T10:21:45.661Z,63.65
2018-11-28T10:24:20.694Z,62.90
2018-11-28T10:26:55.421Z,62.40
2018-11-28T10:29:30.352Z,62.02
2018-11-28T10:32:05.245Z,62.49
2018-11-28T10:34:40.316Z,62.30
2018-11-28T10:37:15.145Z,62.42
2018-11-28T10:39:50.077Z,62.05
2018-11-28T10:42:24.906Z,62.33
2018-11-28T10:44:59.821Z,63.23
2018-11-28T10:47:34.771Z,64.60
2018-11-28T10:50:15.134Z,64.90
2018-11-28T10:52:50.365Z,63.08
2018-11-28T10:55:26.116Z,63.44
2018-11-28T10:58:01.151Z,61.24
2018-11-28T11:00:41.406Z,63.21
2018-11-28T11:03:21.765Z,61.37
2018-11-28T11:06:01.858Z,62.29
2018-11-28T11:08:42.070Z,62.43
2018-11-28T11:11:26.939Z,61.65
2018-11-28T11:14:07.190Z,62.94
2018-11-28T11:16:42.328Z,63.08
2018-11-28T11:19:17.462Z,62.86
2018-11-28T11:21:52.291Z,63.17
2018-11-28T11:24:27.325Z,62.39
2018-11-28T11:27:02.153Z,61.43
2018-11-28T11:29:37.187Z,61.89
2018-11-28T11:32:12.124Z,62.30
2018-11-28T11:34:47.154Z,60.92
2018-11-28T11:37:22.091Z,60.45
2018-11-28T11:39:57.365Z,60.44
2018-11-28T11:42:32.048Z,60.84
2018-11-28T11:45:09.476Z,63.30
2018-11-28T11:47:44.472Z,60.92
2018-11-28T11:50:19.922Z,62.12
2018-11-28T11:52:55.052Z,61.37
2018-11-28T11:55:30.191Z,61.33
2018-11-28T11:58:05.238Z,62.82
2018-11-28T12:00:41.801Z,62.90
2018-11-28T12:03:17.101Z,61.31
2018-11-28T12:05:54.577Z,61.88
2018-11-28T12:08:30.252Z,62.07
2018-11-28T12:11:05.104Z,60.46
2018-11-28T12:13:40.265Z,59.95
2018-11-28T12:16:21.304Z,60.76
2018-11-28T12:18:50.099Z,60.90
2018-11-28T12:21:25.133Z,60.46
2018-11-28T12:24:00.163Z,61.03
2018-11-28T12:26:35.196Z,61.19
2018-11-28T12:29:10.331Z,61.92
2018-11-28T12:31:45.161Z,61.99
2018-11-28T12:34:20.093Z,61.71
2018-11-28T12:36:54.845Z,60.46
2018-11-28T12:39:29.883Z,59.19
2018-11-28T12:42:04.783Z,58.33
2018-11-28T12:44:39.763Z,59.46
2018-11-28T12:47:14.748Z,59.07
2018-11-28T12:49:50.703Z,58.41
2018-11-28T12:52:24.703Z,58.00
2018-11-28T12:54:59.644Z,58.39
2018-11-28T12:57:34.779Z,58.69
2018-11-28T13:00:11.513Z,59.72
2018-11-28T13:02:46.569Z,59.74
2018-11-28T13:05:23.684Z,59.41
2018-11-28T13:07:58.606Z,58.60
2018-11-28T13:10:35.901Z,59.23
2018-11-28T13:13:11.901Z,59.06
2018-11-28T13:15:46.977Z,59.36
2018-11-28T13:18:21.807Z,59.75
2018-11-28T13:20:56.865Z,59.33
2018-11-28T13:23:31.759Z,60.20
2018-11-28T13:26:07.009Z,59.81
2018-11-28T13:28:42.659Z,59.49
2018-11-28T13:31:17.487Z,59.15
2018-11-28T13:33:52.555Z,59.02
2018-11-28T13:36:27.758Z,58.68
2018-11-28T13:39:02.485Z,59.16
2018-11-28T13:41:37.416Z,58.63
2018-11-28T13:44:14.171Z,59.18
2018-11-28T13:46:49.192Z,58.68
2018-11-28T13:49:24.257Z,58.39
2018-11-28T13:51:59.291Z,58.41
2018-11-28T13:55:36.480Z,58.15
2018-11-28T13:57:10.270Z,57.39
2018-11-28T13:59:44.418Z,57.74
2018-11-28T14:02:19.528Z,57.93
2018-11-28T14:04:54.562Z,57.58
2018-11-28T14:07:29.408Z,57.69
2018-11-28T14:10:06.780Z,57.57
2018-11-28T14:12:41.915Z,57.13
2018-11-28T14:15:17.874Z,56.83
2018-11-28T14:17:56.253Z,57.40
2018-11-28T14:20:31.112Z,57.59
2018-11-28T14:23:05.838Z,57.38
2018-11-28T14:25:40.818Z,56.91
2018-11-28T14:28:15.623Z,56.65
2018-11-28T14:30:50.636Z,56.89
2018-11-28T14:33:25.771Z,57.32
2018-11-28T14:36:00.601Z,57.43
2018-11-28T14:38:35.742Z,57.47
2018-11-28T14:41:11.181Z,57.51
2018-11-28T14:43:46.204Z,58.12
2018-11-28T14:46:21.245Z,57.61
2018-11-28T14:48:56.072Z,57.63
2018-11-28T14:51:31.005Z,57.73
2018-11-28T14:54:05.965Z,57.94
2018-11-28T14:56:40.867Z,57.74
2018-11-28T14:59:15.797Z,57.96
2018-11-28T15:01:50.728Z,57.31
2018-11-28T15:04:25.761Z,57.53
2018-11-28T15:07:02.016Z,57.87
2018-11-28T15:09:42.028Z,57.62
2018-11-28T15:12:17.113Z,57.61
2018-11-28T15:14:52.142Z,58.52
2018-11-28T15:17:26.972Z,59.03
2018-11-28T15:20:01.804Z,58.67
2018-11-28T15:22:36.837Z,58.93
2018-11-28T15:25:12.072Z,59.09
2018-11-28T15:27:46.864Z,59.36
2018-11-28T15:30:21.738Z,59.19
2018-11-28T15:32:56.460Z,59.73
2018-11-28T15:35:31.802Z,60.00
2018-11-28T15:38:06.627Z,60.82
2018-11-28T15:40:41.660Z,60.81
2018-11-28T15:43:16.423Z,61.06
2018-11-28T15:45:51.522Z,61.14
2018-11-28T15:48:26.555Z,62.32
2018-11-28T15:51:01.691Z,62.62
2018-11-28T15:53:36.725Z,62.33
2018-11-28T15:56:11.744Z,62.96
2018-11-28T15:58:46.798Z,62.93
2018-11-28T16:01:22.648Z,63.68
2018-11-28T16:03:57.579Z,62.21
2018-11-28T16:06:32.763Z,61.70
2018-11-28T16:09:13.335Z,61.40
2018-11-28T16:11:48.247Z,61.52
2018-11-28T16:14:23.268Z,61.63
2018-11-28T16:16:58.376Z,62.34
2018-11-28T16:19:33.221Z,62.37
2018-11-28T16:22:08.241Z,62.29
2018-11-28T16:24:43.272Z,61.84
2018-11-28T16:27:18.102Z,61.48
2018-11-28T16:29:53.036Z,61.74
2018-11-28T16:32:27.861Z,61.42
2018-11-28T16:35:02.894Z,61.33
2018-11-28T16:37:37.724Z,61.57
2018-11-28T16:40:13.836Z,61.32
2018-11-28T16:42:48.813Z,61.23
2018-11-28T16:45:23.643Z,61.63
2018-11-28T16:47:58.471Z,61.83
2018-11-28T16:50:33.404Z,61.91
2018-11-28T16:53:08.239Z,62.15
2018-11-28T16:55:43.266Z,61.53
2018-11-28T16:58:17.992Z,61.47
2018-11-28T17:00:53.047Z,61.76
2018-11-28T17:03:27.856Z,61.39
2018-11-28T17:06:02.786Z,61.01
2018-11-28T17:08:37.717Z,61.81
2018-11-28T17:11:12.751Z,61.63
2018-11-28T17:13:47.579Z,61.94
2018-11-28T17:16:22.510Z,62.66
2018-11-28T17:18:57.502Z,62.30
2018-11-28T17:21:32.481Z,62.58
2018-11-28T17:24:07.512Z,62.95
2018-11-28T17:26:42.439Z,62.93
2018-11-28T17:29:17.169Z,62.94
2018-11-28T17:31:52.200Z,63.22
2018-11-28T17:34:26.926Z,62.56
2018-11-28T17:37:01.857Z,62.03
2018-11-28T17:39:36.542Z,62.33
2018-11-28T17:42:11.515Z,62.44
2018-11-28T17:44:46.344Z,62.12
2018-11-28T17:47:21.175Z,61.73
2018-11-28T17:49:56.513Z,62.07
2018-11-28T17:52:31.301Z,62.25
2018-11-28T17:55:08.985Z,62.37
2018-11-28T17:57:43.867Z,62.53
2018-11-28T18:00:20.353Z,63.08
2018-11-28T18:02:55.572Z,63.54
2018-11-28T18:05:30.708Z,63.69
2018-11-28T18:08:05.857Z,62.10
2018-11-28T18:10:40.775Z,62.44
2018-11-28T18:13:16.972Z,62.45
2018-11-28T18:15:53.175Z,63.77
2018-11-28T18:18:28.232Z,62.41
2018-11-28T18:21:03.265Z,62.23
2018-11-28T18:23:38.298Z,61.76
2018-11-28T18:26:14.673Z,61.96
2018-11-28T18:28:49.545Z,62.06
2018-11-28T18:31:24.526Z,62.94
2018-11-28T18:33:59.563Z,62.70
2018-11-28T18:36:34.695Z,62.16
2018-11-28T18:39:10.013Z,61.75
2018-11-28T18:41:44.626Z,61.65
2018-11-28T18:44:19.447Z,61.72
2018-11-28T18:46:54.420Z,62.37
2018-11-28T18:49:29.351Z,62.01
2018-11-28T18:52:04.283Z,61.44
2018-11-28T18:54:39.316Z,61.07
2018-11-28T18:57:14.248Z,60.84
2018-11-28T18:59:49.076Z,60.88
2018-11-28T19:02:23.677Z,60.89
2018-11-28T19:04:58.789Z,60.80
2018-11-28T19:07:34.468Z,61.02
2018-11-28T19:10:16.476Z,61.58
2018-11-28T19:12:53.180Z,61.41
2018-11-28T19:15:29.167Z,61.58
2018-11-28T19:18:04.127Z,61.01
2018-11-28T19:20:39.279Z,60.34
2018-11-28T19:23:14.136Z,60.61
2018-11-28T19:25:50.085Z,60.36
2018-11-28T19:28:23.968Z,60.35
2018-11-28T19:30:58.902Z,59.88
2018-11-28T19:33:33.833Z,59.79
2018-11-28T19:36:08.798Z,60.46
2018-11-28T19:38:43.796Z,60.44
2018-11-28T19:41:23.903Z,61.19
2018-11-28T19:43:58.890Z,61.51
2018-11-28T19:46:33.940Z,62.23
2018-11-28T19:49:09.669Z,61.60
2018-11-28T19:51:44.692Z,60.92
2018-11-28T19:54:19.598Z,60.72
2018-11-28T19:56:55.462Z,60.43
2018-11-28T19:59:30.445Z,60.33
2018-11-28T20:02:05.646Z,59.76
2018-11-28T20:04:40.482Z,59.21
2018-11-28T20:07:15.600Z,59.44
2018-11-28T20:09:55.612Z,59.08
2018-11-28T20:12:30.941Z,59.10
2018-11-28T20:15:15.458Z,59.03
2018-11-28T20:17:50.702Z,58.76
2018-11-28T20:20:26.043Z,58.58
2018-11-28T20:23:00.871Z,59.26
2018-11-28T20:25:35.803Z,59.26
2018-11-28T20:28:10.743Z,59.46
2018-11-28T20:30:46.153Z,59.47
2018-11-28T20:33:21.318Z,59.53
2018-11-28T20:35:56.552Z,59.77
2018-11-28T20:38:33.151Z,59.79
2018-11-28T20:41:08.154Z,59.10
2018-11-28T20:43:42.985Z,59.21
2018-11-28T20:46:18.017Z,59.27
2018-11-28T20:48:53.050Z,59.28
2018-11-28T20:51:27.782Z,59.47
2018-11-28T20:54:02.810Z,58.98
2018-11-28T20:56:37.786Z,59.61
2018-11-28T20:59:12.717Z,60.50
2018-11-28T21:01:47.808Z,59.38
2018-11-28T21:04:22.453Z,58.80
2018-11-28T21:07:11.203Z,59.82
2018-11-28T21:09:51.198Z,59.64
2018-11-28T21:12:26.375Z,59.75
2018-11-28T21:15:01.002Z,59.09
2018-11-28T21:17:35.832Z,58.46
2018-11-28T21:20:15.938Z,59.30
2018-11-28T21:22:52.089Z,59.07
2018-11-28T21:25:26.841Z,59.09
2018-11-28T21:28:01.901Z,59.56
2018-11-28T21:30:37.260Z,59.50
2018-11-28T21:33:13.589Z,60.41
2018-11-28T21:35:50.211Z,60.26
2018-11-28T21:38:25.121Z,59.47
2018-11-28T21:41:00.143Z,59.89
2018-11-28T21:43:35.278Z,60.43
2018-11-28T21:46:10.517Z,60.22
2018-11-28T21:48:45.458Z,60.17
2018-11-28T21:51:20.631Z,60.16
2018-11-28T21:53:55.891Z,59.81
2018-11-28T21:56:30.959Z,60.47
2018-11-28T21:59:06.553Z,61.53
2018-11-28T22:01:41.537Z,61.96
2018-11-28T22:04:16.365Z,61.31
2018-11-28T22:06:51.355Z,61.20
2018-11-28T22:09:26.641Z,60.87
2018-11-28T22:12:01.886Z,61.41
2018-11-28T22:14:36.912Z,61.14
2018-11-28T22:17:11.953Z,61.19
2018-11-28T22:19:46.918Z,60.59
2018-11-28T22:22:21.985Z,60.53
2018-11-28T22:24:57.046Z,60.83
2018-11-28T22:27:31.876Z,60.78
2018-11-28T22:30:07.564Z,60.71
2018-11-28T22:32:42.763Z,60.37
2018-11-28T22:35:17.793Z,59.93
2018-11-28T22:37:52.828Z,60.09
2018-11-28T22:40:29.263Z,60.11
2018-11-28T22:43:05.167Z,59.96
2018-11-28T22:45:40.079Z,59.89
2018-11-28T22:48:15.113Z,59.90
2018-11-28T22:50:50.145Z,60.42
2018-11-28T22:53:25.076Z,60.04
2018-11-28T22:56:00.233Z,60.77
2018-11-28T22:58:35.144Z,61.63
2018-11-28T23:01:11.473Z,60.71
2018-11-28T23:03:49.663Z,61.78
2018-11-28T23:06:27.783Z,61.93
2018-11-28T23:09:03.163Z,61.83
2018-11-28T23:11:37.995Z,61.69
2018-11-28T23:14:13.129Z,60.84
2018-11-28T23:16:47.854Z,60.55
2018-11-28T23:19:22.989Z,60.23
2018-11-28T23:21:57.921Z,60.18
2018-11-28T23:24:32.852Z,60.29
2018-11-28T23:27:07.790Z,59.88
2018-11-28T23:29:42.887Z,59.97
2018-11-28T23:32:17.801Z,59.77
2018-11-28T23:34:52.783Z,59.34
2018-11-28T23:37:27.816Z,60.16
2018-11-28T23:40:03.237Z,60.69
2018-11-28T23:42:37.989Z,59.68
2018-11-28T23:45:13.806Z,59.45
2018-11-28T23:47:49.139Z,61.54
2018-11-28T23:50:25.221Z,60.30
2018-11-28T23:52:59.861Z,59.65
2018-11-28T23:55:35.924Z,59.51
